createdAt,value
2022-10-05T00:02:22.913Z,6.73
2022-10-05T00:04:53.699Z,7.47
2022-10-05T00:07:22.250Z,5.97
2022-10-05T00:10:09.268Z,6.20
2022-10-05T00:12:35.725Z,7.90
2022-10-05T00:15:07.020Z,8.67
2022-10-05T00:17:33.394Z,7.47
2022-10-05T00:19:59.915Z,8.27
2022-10-05T00:22:32.253Z,7.23
2022-10-05T00:25:01.307Z,8.47
2022-10-05T00:27:34.009Z,6.47
2022-10-05T00:30:11.198Z,7.60
2022-10-05T00:32:37.576Z,9.50
2022-10-05T00:35:04.222Z,7.23
2022-10-05T00:37:30.638Z,7.50
2022-10-05T00:39:57.226Z,8.90
2022-10-05T00:42:53.745Z,7.87
2022-10-05T00:45:32.120Z,7.37
2022-10-05T00:48:19.908Z,7.53
2022-10-05T00:51:13.226Z,7.80
2022-10-05T00:54:28.053Z,9.03
2022-10-05T00:57:19.122Z,7.83
2022-10-05T01:00:07.389Z,5.80
2022-10-05T01:02:46.081Z,7.43
2022-10-05T01:05:57.049Z,7.90
2022-10-05T01:08:50.753Z,8.80
2022-10-05T01:11:23.813Z,6.63
2022-10-05T01:14:06.482Z,7.33
2022-10-05T01:16:51.003Z,7.83
2022-10-05T01:20:03.837Z,8.37
2022-10-05T01:22:41.425Z,7.43
2022-10-05T01:25:26.892Z,9.27
2022-10-05T01:27:57.268Z,6.90
2022-10-05T01:30:23.774Z,7.10
2022-10-05T01:33:09.349Z,8.77
2022-10-05T01:36:03.519Z,9.37
2022-10-05T01:38:44.976Z,7.20
2022-10-05T01:41:25.371Z,6.23
2022-10-05T01:44:31.203Z,10.13
2022-10-05T01:47:06.761Z,8.00
2022-10-05T01:49:38.298Z,8.57
2022-10-05T01:52:46.552Z,9.30
2022-10-05T01:55:31.011Z,7.50
2022-10-05T01:57:57.419Z,9.83
2022-10-05T02:00:23.971Z,10.07
2022-10-05T02:03:16.133Z,8.63
2022-10-05T02:05:57.986Z,9.33
2022-10-05T02:08:31.237Z,9.20
2022-10-05T02:11:07.833Z,10.17
2022-10-05T02:13:48.880Z,8.40
2022-10-05T02:16:26.573Z,8.40
2022-10-05T02:19:09.187Z,7.90
2022-10-05T02:21:36.482Z,8.60
2022-10-05T02:24:09.908Z,11.47
2022-10-05T02:26:37.435Z,8.83
2022-10-05T02:29:09.500Z,7.67
2022-10-05T02:31:50.489Z,10.03
2022-10-05T02:34:27.959Z,9.97
2022-10-05T02:37:24.729Z,8.20
2022-10-05T02:40:01.486Z,9.13
2022-10-05T02:42:43.065Z,8.90
2022-10-05T02:45:34.746Z,9.13
2022-10-05T02:48:37.171Z,9.30
2022-10-05T02:51:38.910Z,8.70
2022-10-05T02:54:25.332Z,9.60
2022-10-05T02:56:57.760Z,8.13
2022-10-05T02:59:44.039Z,6.53
2022-10-05T03:02:19.388Z,11.63
2022-10-05T03:05:06.247Z,9.27
2022-10-05T03:07:39.642Z,9.00
2022-10-05T03:10:11.700Z,8.47
2022-10-05T03:13:10.501Z,8.80
2022-10-05T03:16:21.864Z,10.17
2022-10-05T03:18:58.624Z,10.80
2022-10-05T03:21:40.655Z,10.57
2022-10-05T03:24:25.849Z,9.20
2022-10-05T03:27:06.659Z,10.20
2022-10-05T03:29:43.143Z,7.37
2022-10-05T03:32:31.038Z,9.27
2022-10-05T03:35:04.766Z,9.20
2022-10-05T03:37:47.948Z,8.93
2022-10-05T03:40:34.997Z,9.03
2022-10-05T03:43:27.283Z,11.40
2022-10-05T03:46:12.738Z,8.23
2022-10-05T03:49:01.432Z,8.73
2022-10-05T03:51:33.990Z,10.83
2022-10-05T03:54:24.840Z,10.63
2022-10-05T03:56:55.453Z,11.63
2022-10-05T03:59:32.425Z,10.23
2022-10-05T04:02:02.387Z,8.57
2022-10-05T04:04:37.298Z,10.03
2022-10-05T04:07:05.817Z,9.03
2022-10-05T04:09:53.087Z,9.63
2022-10-05T04:12:30.323Z,8.90
2022-10-05T04:15:07.801Z,10.10
2022-10-05T04:17:42.674Z,7.07
2022-10-05T04:20:18.027Z,10.83
2022-10-05T04:22:56.722Z,7.00
2022-10-05T04:25:29.517Z,10.00
2022-10-05T04:28:13.329Z,8.30
2022-10-05T04:30:43.460Z,8.23
2022-10-05T04:33:12.624Z,9.57
2022-10-05T04:36:16.596Z,8.97
2022-10-05T04:39:20.222Z,8.23
2022-10-05T04:41:52.577Z,7.43
2022-10-05T04:44:27.709Z,8.77
2022-10-05T04:47:15.485Z,7.70
2022-10-05T04:50:07.086Z,8.07
2022-10-05T04:52:47.948Z,9.43
2022-10-05T04:55:43.933Z,9.37
2022-10-05T04:58:42.410Z,8.10
2022-10-05T05:01:50.534Z,9.77
2022-10-05T05:04:19.882Z,9.73
2022-10-05T05:07:23.778Z,7.90
2022-10-05T05:10:03.149Z,9.43
2022-10-05T05:12:38.487Z,7.43
2022-10-05T05:15:28.833Z,8.53
2022-10-05T05:18:27.436Z,6.70
2022-10-05T05:21:02.150Z,8.60
2022-10-05T05:23:55.417Z,10.50
2022-10-05T05:26:30.001Z,8.30
2022-10-05T05:28:59.066Z,7.93
2022-10-05T05:31:49.767Z,7.10
2022-10-05T05:34:48.903Z,9.53
2022-10-05T05:37:30.995Z,7.37
2022-10-05T05:40:12.295Z,9.53
2022-10-05T05:43:03.359Z,7.47
2022-10-05T05:45:43.839Z,8.23
2022-10-05T05:48:30.980Z,7.03
2022-10-05T05:51:16.115Z,8.70
2022-10-05T05:53:49.548Z,10.63
2022-10-05T05:56:32.554Z,9.67
2022-10-05T05:59:25.356Z,7.77
2022-10-05T06:01:59.565Z,7.10
2022-10-05T06:04:35.360Z,7.43
2022-10-05T06:07:05.032Z,8.90
2022-10-05T06:09:43.097Z,6.93
2022-10-05T06:12:14.299Z,5.43
2022-10-05T06:14:48.014Z,7.30
2022-10-05T06:17:42.260Z,6.27
2022-10-05T06:20:59.836Z,7.60
2022-10-05T06:23:35.682Z,6.50
2022-10-05T06:26:15.089Z,6.07
2022-10-05T06:28:42.298Z,8.60
2022-10-05T06:31:40.741Z,6.17
2022-10-05T06:34:29.940Z,8.57
2022-10-05T06:37:01.618Z,9.63
2022-10-05T06:39:47.198Z,6.70
2022-10-05T06:42:41.303Z,6.30
2022-10-05T06:45:17.856Z,6.73
2022-10-05T06:47:51.824Z,6.70
2022-10-05T06:50:55.706Z,7.07
2022-10-05T06:53:44.434Z,5.13
2022-10-05T06:56:35.806Z,5.70
2022-10-05T06:59:14.144Z,7.67
2022-10-05T07:02:08.843Z,9.63
2022-10-05T07:04:37.998Z,4.43
2022-10-05T07:07:11.108Z,6.90
2022-10-05T07:10:07.925Z,7.90
2022-10-05T07:13:12.268Z,4.47
2022-10-05T07:15:44.613Z,4.90
2022-10-05T07:18:32.787Z,5.77
2022-10-05T07:21:17.611Z,5.60
2022-10-05T07:24:02.340Z,5.07
2022-10-05T07:26:51.387Z,5.13
2022-10-05T07:29:45.509Z,5.13
2022-10-05T07:32:34.015Z,6.00
2022-10-05T07:35:36.539Z,6.37
2022-10-05T07:38:12.694Z,5.10
2022-10-05T07:40:47.626Z,5.30
2022-10-05T07:43:45.288Z,6.10
2022-10-05T07:46:45.793Z,6.33
2022-10-05T07:49:25.760Z,4.30
2022-10-05T07:52:00.234Z,5.73
2022-10-05T07:54:53.272Z,6.03
2022-10-05T07:57:28.626Z,9.20
2022-10-05T08:00:11.358Z,5.67
2022-10-05T08:02:45.307Z,4.60
2022-10-05T08:05:15.496Z,5.90
2022-10-05T08:07:42.743Z,6.57
2022-10-05T08:10:33.916Z,7.17
2022-10-05T08:13:16.286Z,7.13
2022-10-05T08:15:48.287Z,5.43
2022-10-05T08:18:23.308Z,5.13
2022-10-05T08:20:54.783Z,6.20
2022-10-05T08:23:25.122Z,4.27
2022-10-05T08:26:15.718Z,4.57
2022-10-05T08:28:54.186Z,3.93
2022-10-05T08:31:26.663Z,4.30
2022-10-05T08:33:53.047Z,4.03
2022-10-05T08:36:26.443Z,3.70
2022-10-05T08:38:55.433Z,3.43
2022-10-05T08:41:50.195Z,4.50
2022-10-05T08:44:50.284Z,4.23
2022-10-05T08:47:38.631Z,4.67
2022-10-05T08:50:16.829Z,4.37
2022-10-05T08:53:35.678Z,4.30
2022-10-05T08:56:37.051Z,4.53
2022-10-05T08:59:50.257Z,4.20
2022-10-05T09:02:41.462Z,6.80
2022-10-05T09:05:14.007Z,3.73
2022-10-05T09:07:43.403Z,4.63
2022-10-05T09:10:24.646Z,3.87
2022-10-05T09:13:21.223Z,5.30
2022-10-05T09:16:16.896Z,5.13
2022-10-05T09:18:55.532Z,4.93
2022-10-05T09:21:43.366Z,4.33
2022-10-05T09:24:12.710Z,5.83
2022-10-05T09:27:16.741Z,4.27
2022-10-05T09:30:30.517Z,4.70
2022-10-05T09:33:13.456Z,5.17
2022-10-05T09:36:09.116Z,5.27
2022-10-05T09:39:13.092Z,4.90
2022-10-05T09:42:16.462Z,6.03
2022-10-05T09:44:52.165Z,4.80
2022-10-05T09:47:26.475Z,6.00
2022-10-05T09:50:17.475Z,6.63
2022-10-05T09:53:12.496Z,5.97
2022-10-05T09:56:09.819Z,6.20
2022-10-05T09:59:06.445Z,5.17
2022-10-05T10:02:04.513Z,4.63
2022-10-05T10:05:05.157Z,5.37
2022-10-05T10:07:39.113Z,6.50
2022-10-05T10:10:39.420Z,5.10
2022-10-05T10:13:36.072Z,6.93
2022-10-05T10:16:12.759Z,5.73
2022-10-05T10:18:48.345Z,7.40
2022-10-05T10:21:35.905Z,6.00
2022-10-05T10:24:08.376Z,6.40
2022-10-05T10:26:53.125Z,3.77
2022-10-05T10:29:50.483Z,4.70
2022-10-05T10:32:19.784Z,4.60
2022-10-05T10:35:18.858Z,4.30
2022-10-05T10:38:28.624Z,6.07
2022-10-05T10:41:23.399Z,3.27
2022-10-05T10:43:59.328Z,5.50
2022-10-05T10:46:37.779Z,5.40
2022-10-05T10:49:22.662Z,3.17
2022-10-05T10:52:43.490Z,5.03
2022-10-05T10:55:28.513Z,7.47
2022-10-05T10:58:27.452Z,4.03
2022-10-05T11:01:27.992Z,4.83
2022-10-05T11:04:21.059Z,3.87
2022-10-05T11:07:11.870Z,3.97
2022-10-05T11:09:53.444Z,3.93
2022-10-05T11:12:55.600Z,4.77
2022-10-05T11:15:45.640Z,4.63
2022-10-05T11:18:20.443Z,3.70
2022-10-05T11:21:17.345Z,4.30
2022-10-05T11:24:17.580Z,5.50
2022-10-05T11:27:12.397Z,4.60
2022-10-05T11:30:02.830Z,6.03
2022-10-05T11:32:42.837Z,4.30
2022-10-05T11:35:41.254Z,4.50
2022-10-05T11:38:25.991Z,3.33
2022-10-05T11:41:19.847Z,5.20
2022-10-05T11:44:07.314Z,3.27
2022-10-05T11:46:55.496Z,6.40
2022-10-05T11:49:34.057Z,3.63
2022-10-05T11:52:06.593Z,3.77
2022-10-05T11:55:09.898Z,3.30
2022-10-05T11:57:43.858Z,3.73
2022-10-05T12:00:18.395Z,5.57
2022-10-05T12:03:03.824Z,6.57
2022-10-05T12:05:36.271Z,3.73
2022-10-05T12:08:14.712Z,4.67
2022-10-05T12:11:07.771Z,3.50
2022-10-05T12:13:58.982Z,3.93
2022-10-05T12:16:41.823Z,3.97
2022-10-05T12:19:22.183Z,2.90
2022-10-05T12:21:59.840Z,3.43
2022-10-05T12:24:38.108Z,2.57
2022-10-05T12:27:11.708Z,4.20
2022-10-05T12:29:46.015Z,5.73
2022-10-05T12:32:24.004Z,3.17
2022-10-05T12:35:01.855Z,3.00
2022-10-05T12:37:43.112Z,2.47
2022-10-05T12:40:40.294Z,7.03
2022-10-05T12:43:33.364Z,4.40
2022-10-05T12:46:17.657Z,2.33
2022-10-05T12:49:15.065Z,3.27
2022-10-05T12:51:58.059Z,2.97
2022-10-05T12:54:30.070Z,4.20
2022-10-05T12:57:25.936Z,2.37
2022-10-05T13:00:04.219Z,6.57
2022-10-05T13:02:44.123Z,2.60
2022-10-05T13:05:10.422Z,2.50
2022-10-05T13:07:51.802Z,2.23
2022-10-05T13:10:31.626Z,5.63
2022-10-05T13:13:09.939Z,2.43
2022-10-05T13:15:40.877Z,3.73
2022-10-05T13:18:18.613Z,3.73
2022-10-05T13:21:13.969Z,4.83
2022-10-05T13:23:59.843Z,3.73
2022-10-05T13:26:39.854Z,3.80
2022-10-05T13:29:40.411Z,5.03
2022-10-05T13:32:12.551Z,3.47
2022-10-05T13:35:11.760Z,4.30
2022-10-05T13:37:48.966Z,2.70
2022-10-05T13:40:33.305Z,3.70
2022-10-05T13:43:14.950Z,3.90
2022-10-05T13:46:14.133Z,2.57
2022-10-05T13:49:08.446Z,1.77
2022-10-05T13:51:49.519Z,2.60
2022-10-05T13:54:27.987Z,3.53
2022-10-05T13:57:28.411Z,4.37
2022-10-05T14:00:02.125Z,4.73
2022-10-05T14:02:38.523Z,3.53
2022-10-05T14:05:19.475Z,4.03
2022-10-05T14:07:50.757Z,3.10
2022-10-05T14:10:40.416Z,3.73
2022-10-05T14:13:44.353Z,1.87
2022-10-05T14:16:13.816Z,3.40
2022-10-05T14:18:59.593Z,3.10
2022-10-05T14:21:30.338Z,4.13
2022-10-05T14:24:25.852Z,3.30
2022-10-05T14:27:25.283Z,3.00
2022-10-05T14:30:13.867Z,3.90
2022-10-05T14:32:49.361Z,1.70
2022-10-05T14:35:21.776Z,4.07
2022-10-05T14:37:56.121Z,2.33
2022-10-05T14:40:26.907Z,3.00
2022-10-05T14:42:53.760Z,3.63
2022-10-05T14:45:33.371Z,5.63
2022-10-05T14:48:01.583Z,2.60
2022-10-05T14:50:30.784Z,2.70
2022-10-05T14:53:03.775Z,2.90
2022-10-05T14:55:39.773Z,5.47
2022-10-05T14:58:36.556Z,5.57
2022-10-05T15:01:30.848Z,3.20
2022-10-05T15:04:31.847Z,3.00
2022-10-05T15:07:20.254Z,3.53
2022-10-05T15:10:14.530Z,3.13
2022-10-05T15:12:46.668Z,3.87
2022-10-05T15:15:33.337Z,2.90
2022-10-05T15:18:05.481Z,4.37
2022-10-05T15:20:44.980Z,4.90
2022-10-05T15:23:26.218Z,3.03
2022-10-05T15:26:01.732Z,3.40
2022-10-05T15:28:40.529Z,5.13
2022-10-05T15:31:35.938Z,2.67
2022-10-05T15:34:58.483Z,4.47
2022-10-05T15:37:44.652Z,3.13
2022-10-05T15:40:37.271Z,2.20
2022-10-05T15:43:12.339Z,5.30
2022-10-05T15:45:52.958Z,2.57
2022-10-05T15:48:29.124Z,2.70
2022-10-05T15:51:22.477Z,3.17
2022-10-05T15:54:41.674Z,3.77
2022-10-05T15:57:19.851Z,2.50
2022-10-05T15:59:51.308Z,2.83
2022-10-05T16:02:24.634Z,5.43
2022-10-05T16:05:05.016Z,2.80
2022-10-05T16:08:00.756Z,4.70
2022-10-05T16:10:28.278Z,1.70
2022-10-05T16:13:11.736Z,1.80
2022-10-05T16:15:48.653Z,9.70
2022-10-05T16:18:42.078Z,4.60
2022-10-05T16:21:14.658Z,1.87
2022-10-05T16:24:06.230Z,2.73
2022-10-05T16:26:50.974Z,2.37
2022-10-05T16:29:24.761Z,2.67
2022-10-05T16:32:00.063Z,2.70
2022-10-05T16:34:46.124Z,2.63
2022-10-05T16:37:17.241Z,1.30
2022-10-05T16:40:00.108Z,2.23
2022-10-05T16:43:18.399Z,2.07
2022-10-05T16:45:56.755Z,3.00
2022-10-05T16:48:28.782Z,4.73
2022-10-05T16:51:12.243Z,1.60
2022-10-05T16:53:44.006Z,2.50
2022-10-05T16:56:20.492Z,2.33
2022-10-05T16:59:37.500Z,2.10
2022-10-05T17:02:30.029Z,1.60
2022-10-05T17:05:24.198Z,3.27
2022-10-05T17:08:13.468Z,2.17
2022-10-05T17:11:10.506Z,3.20
2022-10-05T17:13:47.941Z,3.00
2022-10-05T17:16:34.651Z,2.50
2022-10-05T17:19:21.313Z,3.57
2022-10-05T17:22:08.758Z,1.70
2022-10-05T17:25:02.754Z,3.60
2022-10-05T17:27:35.225Z,5.17
2022-10-05T17:30:40.543Z,3.43
2022-10-05T17:33:13.987Z,2.77
2022-10-05T17:35:52.630Z,2.53
2022-10-05T17:38:40.570Z,3.37
2022-10-05T17:41:09.809Z,2.00
2022-10-05T17:43:36.404Z,3.30
2022-10-05T17:46:06.654Z,4.43
2022-10-05T17:48:49.777Z,3.70
2022-10-05T17:52:04.010Z,5.03
2022-10-05T17:55:11.583Z,2.20
2022-10-05T17:57:39.544Z,3.40
2022-10-05T18:00:29.297Z,3.23
2022-10-05T18:02:57.435Z,6.27
2022-10-05T18:05:30.280Z,4.33
2022-10-05T18:08:11.610Z,2.60
2022-10-05T18:10:58.647Z,3.30
2022-10-05T18:13:50.253Z,2.50
2022-10-05T18:16:54.450Z,5.07
2022-10-05T18:19:22.233Z,3.50
2022-10-05T18:22:03.480Z,3.60
2022-10-05T18:24:52.959Z,3.43
2022-10-05T18:27:34.443Z,1.90
2022-10-05T18:30:24.801Z,5.43
2022-10-05T18:33:09.541Z,4.80
2022-10-05T18:35:37.099Z,4.90
2022-10-05T18:38:42.191Z,3.53
2022-10-05T18:41:20.525Z,2.73
2022-10-05T18:43:55.784Z,2.40
2022-10-05T18:46:24.917Z,2.30
2022-10-05T18:49:19.649Z,3.83
2022-10-05T18:52:00.394Z,3.13
2022-10-05T18:54:33.054Z,4.77
2022-10-05T18:57:20.019Z,3.87
2022-10-05T19:00:01.308Z,2.73
2022-10-05T19:02:38.360Z,2.37
2022-10-05T19:05:46.315Z,3.93
2022-10-05T19:08:32.968Z,2.97
2022-10-05T19:11:12.588Z,4.07
2022-10-05T19:13:45.105Z,2.07
2022-10-05T19:16:17.000Z,5.47
2022-10-05T19:19:11.131Z,4.10
2022-10-05T19:21:38.123Z,4.93
2022-10-05T19:24:24.692Z,5.20
2022-10-05T19:26:56.886Z,1.83
2022-10-05T19:29:57.398Z,3.23
2022-10-05T19:33:00.351Z,3.43
2022-10-05T19:35:38.543Z,5.97
2022-10-05T19:38:25.349Z,6.90
2022-10-05T19:41:15.966Z,3.23
2022-10-05T19:44:06.662Z,5.00
2022-10-05T19:46:54.019Z,4.47
2022-10-05T19:49:47.487Z,2.40
2022-10-05T19:52:36.463Z,2.67
2022-10-05T19:55:31.095Z,2.40
2022-10-05T19:58:01.243Z,3.47
2022-10-05T20:00:33.062Z,2.07
2022-10-05T20:03:11.887Z,2.63
2022-10-05T20:05:39.604Z,2.30
2022-10-05T20:08:06.543Z,3.20
2022-10-05T20:10:33.580Z,2.90
2022-10-05T20:13:02.371Z,3.07
2022-10-05T20:15:49.715Z,5.20
2022-10-05T20:18:54.326Z,2.23
2022-10-05T20:21:39.470Z,4.97
2022-10-05T20:24:09.549Z,2.97
2022-10-05T20:27:02.006Z,1.53
2022-10-05T20:29:29.895Z,1.17
2022-10-05T20:31:57.029Z,1.90
2022-10-05T20:34:24.078Z,1.70
2022-10-05T20:36:51.464Z,0.60
2022-10-05T20:39:18.704Z,1.53
2022-10-05T20:41:45.662Z,2.17
2022-10-05T20:44:13.119Z,1.83
2022-10-05T20:46:42.785Z,3.00
2022-10-05T20:49:10.730Z,2.80
2022-10-05T20:51:40.280Z,1.40
2022-10-05T20:54:07.943Z,1.43
2022-10-05T20:56:34.489Z,1.30
2022-10-05T20:59:00.860Z,2.03
2022-10-05T21:01:28.826Z,3.57
2022-10-05T21:03:55.487Z,3.73
2022-10-05T21:06:22.424Z,0.97
2022-10-05T21:08:51.401Z,1.70
2022-10-05T21:11:17.855Z,4.90
2022-10-05T21:13:45.328Z,1.57
2022-10-05T21:16:15.455Z,4.30
2022-10-05T21:18:44.348Z,2.10
2022-10-05T21:21:11.091Z,1.40
2022-10-05T21:23:37.428Z,2.20
2022-10-05T21:26:03.924Z,1.23
2022-10-05T21:28:31.753Z,2.00
2022-10-05T21:30:58.471Z,1.17
2022-10-05T21:33:25.263Z,1.33
2022-10-05T21:35:51.962Z,2.47
2022-10-05T21:38:18.417Z,2.80
2022-10-05T21:40:45.489Z,1.10
2022-10-05T21:43:13.347Z,4.70
2022-10-05T21:45:40.735Z,4.53
2022-10-05T21:48:08.103Z,3.00
2022-10-05T21:50:35.232Z,3.53
2022-10-05T21:53:04.359Z,4.27
2022-10-05T21:55:32.891Z,1.63
2022-10-05T21:58:01.172Z,2.13
2022-10-05T22:00:27.691Z,3.27
2022-10-05T22:02:54.120Z,2.23
2022-10-05T22:05:20.621Z,2.77
2022-10-05T22:07:47.099Z,3.77
2022-10-05T22:10:13.538Z,3.80
2022-10-05T22:12:42.554Z,1.30
2022-10-05T22:15:09.560Z,3.60
2022-10-05T22:17:36.148Z,2.63
2022-10-05T22:20:03.242Z,3.17
2022-10-05T22:22:29.867Z,4.97
2022-10-05T22:24:56.634Z,1.93
2022-10-05T22:27:25.509Z,3.90
2022-10-05T22:29:52.512Z,1.30
2022-10-05T22:32:18.881Z,2.27
2022-10-05T22:34:45.332Z,2.03
2022-10-05T22:37:13.226Z,3.67
2022-10-05T22:39:40.417Z,7.20
2022-10-05T22:42:07.525Z,4.50
2022-10-05T22:44:34.842Z,4.80
2022-10-05T22:47:01.261Z,3.60
2022-10-05T22:49:28.011Z,4.33
2022-10-05T22:51:54.854Z,4.93
2022-10-05T22:54:21.547Z,3.37
2022-10-05T22:56:47.933Z,4.23
2022-10-05T22:59:14.316Z,2.77
2022-10-05T23:01:40.722Z,4.57
2022-10-05T23:04:08.785Z,5.63
2022-10-05T23:06:35.142Z,5.20
2022-10-05T23:09:01.485Z,6.53
2022-10-05T23:11:29.655Z,6.40
2022-10-05T23:13:57.160Z,2.17
2022-10-05T23:16:26.218Z,4.67
2022-10-05T23:18:54.047Z,2.07
2022-10-05T23:21:22.688Z,2.60
2022-10-05T23:23:51.310Z,6.33
2022-10-05T23:26:20.381Z,3.00
2022-10-05T23:28:47.317Z,2.80
2022-10-05T23:31:16.929Z,3.57
2022-10-05T23:33:43.621Z,8.60
2022-10-05T23:36:14.447Z,7.27
2022-10-05T23:38:40.860Z,5.80
2022-10-05T23:41:08.674Z,5.07
2022-10-05T23:43:36.730Z,6.43
2022-10-05T23:46:05.183Z,4.77
2022-10-05T23:48:32.299Z,7.43
2022-10-05T23:50:59.353Z,5.20
2022-10-05T23:53:25.777Z,3.83
2022-10-05T23:55:54.885Z,3.17
2022-10-05T23:58:22.350Z,4.23
